sensor_id;sensor_type;location;lat;lon;timestamp;P1;durP1;ratioP1;P2;durP2;ratioP2
40533;SDS011;26233;51.894;10.192;2023-05-10T00:01:17;2.42;;;2.22;;
40533;SDS011;26233;51.894;10.192;2023-05-10T00:03:47;2.10;;;2.00;;
40533;SDS011;26233;51.894;10.192;2023-05-10T00:06:14;1.95;;;1.85;;
40533;SDS011;26233;51.894;10.192;2023-05-10T00:08:41;2.65;;;2.20;;
40533;SDS011;26233;51.894;10.192;2023-05-10T00:11:08;2.00;;;1.90;;
40533;SDS011;26233;51.894;10.192;2023-05-10T00:13:35;3.40;;;2.50;;
40533;SDS011;26233;51.894;10.192;2023-05-10T00:16:04;2.10;;;2.00;;
40533;SDS011;26233;51.894;10.192;2023-05-10T00:18:32;2.20;;;2.10;;
40533;SDS011;26233;51.894;10.192;2023-05-10T00:20:59;2.38;;;2.20;;
40533;SDS011;26233;51.894;10.192;2023-05-10T00:23:26;2.13;;;2.00;;
40533;SDS011;26233;51.894;10.192;2023-05-10T00:25:53;2.08;;;1.98;;
40533;SDS011;26233;51.894;10.192;2023-05-10T00:28:20;2.22;;;2.00;;
40533;SDS011;26233;51.894;10.192;2023-05-10T00:30:47;2.30;;;2.10;;
40533;SDS011;26233;51.894;10.192;2023-05-10T00:33:15;2.63;;;2.17;;
40533;SDS011;26233;51.894;10.192;2023-05-10T00:35:43;2.00;;;1.90;;
40533;SDS011;26233;51.894;10.192;2023-05-10T00:38:10;4.55;;;2.10;;
40533;SDS011;26233;51.894;10.192;2023-05-10T00:40:37;2.00;;;1.90;;
40533;SDS011;26233;51.894;10.192;2023-05-10T00:43:04;2.40;;;2.05;;
40533;SDS011;26233;51.894;10.192;2023-05-10T00:45:31;3.92;;;2.28;;
40533;SDS011;26233;51.894;10.192;2023-05-10T00:47:59;2.35;;;2.13;;
40533;SDS011;26233;51.894;10.192;2023-05-10T00:50:30;3.35;;;2.40;;
40533;SDS011;26233;51.894;10.192;2023-05-10T00:52:57;2.42;;;2.22;;
40533;SDS011;26233;51.894;10.192;2023-05-10T00:55:26;2.50;;;2.22;;
40533;SDS011;26233;51.894;10.192;2023-05-10T00:57:53;2.50;;;2.20;;
40533;SDS011;26233;51.894;10.192;2023-05-10T01:00:20;2.30;;;2.10;;
40533;SDS011;26233;51.894;10.192;2023-05-10T01:02:47;2.85;;;2.30;;
40533;SDS011;26233;51.894;10.192;2023-05-10T01:05:15;2.60;;;2.40;;
40533;SDS011;26233;51.894;10.192;2023-05-10T01:07:43;2.25;;;2.05;;
40533;SDS011;26233;51.894;10.192;2023-05-10T01:10:10;2.40;;;2.17;;
40533;SDS011;26233;51.894;10.192;2023-05-10T01:12:38;2.15;;;1.98;;
40533;SDS011;26233;51.894;10.192;2023-05-10T01:15:10;2.00;;;1.90;;
40533;SDS011;26233;51.894;10.192;2023-05-10T01:17:38;2.80;;;2.55;;
40533;SDS011;26233;51.894;10.192;2023-05-10T01:20:09;2.85;;;2.03;;
40533;SDS011;26233;51.894;10.192;2023-05-10T01:22:42;2.30;;;2.20;;
40533;SDS011;26233;51.894;10.192;2023-05-10T01:26:11;3.83;;;2.38;;
40533;SDS011;26233;51.894;10.192;2023-05-10T01:29:22;2.28;;;2.10;;
40533;SDS011;26233;51.894;10.192;2023-05-10T01:32:37;2.47;;;1.90;;
40533;SDS011;26233;51.894;10.192;2023-05-10T01:35:13;2.22;;;2.03;;
40533;SDS011;26233;51.894;10.192;2023-05-10T01:37:46;2.38;;;2.17;;
40533;SDS011;26233;51.894;10.192;2023-05-10T01:40:25;2.25;;;2.05;;
40533;SDS011;26233;51.894;10.192;2023-05-10T01:43:00;2.22;;;2.10;;
40533;SDS011;26233;51.894;10.192;2023-05-10T01:45:31;2.47;;;2.28;;
40533;SDS011;26233;51.894;10.192;2023-05-10T01:48:06;2.55;;;2.20;;
40533;SDS011;26233;51.894;10.192;2023-05-10T01:50:37;2.35;;;2.15;;
40533;SDS011;26233;51.894;10.192;2023-05-10T01:53:09;2.60;;;2.40;;
40533;SDS011;26233;51.894;10.192;2023-05-10T01:55:39;1.95;;;1.85;;
40533;SDS011;26233;51.894;10.192;2023-05-10T01:58:13;2.40;;;2.20;;
40533;SDS011;26233;51.894;10.192;2023-05-10T02:00:46;2.28;;;2.10;;
40533;SDS011;26233;51.894;10.192;2023-05-10T02:03:17;2.33;;;2.13;;
40533;SDS011;26233;51.894;10.192;2023-05-10T02:05:47;2.45;;;2.25;;
40533;SDS011;26233;51.894;10.192;2023-05-10T02:08:15;2.47;;;2.28;;
40533;SDS011;26233;51.894;10.192;2023-05-10T02:10:45;2.60;;;2.08;;
40533;SDS011;26233;51.894;10.192;2023-05-10T02:13:13;2.15;;;2.03;;
40533;SDS011;26233;51.894;10.192;2023-05-10T02:15:42;2.30;;;2.10;;
40533;SDS011;26233;51.894;10.192;2023-05-10T02:18:13;2.38;;;2.17;;
40533;SDS011;26233;51.894;10.192;2023-05-10T02:20:42;3.00;;;2.20;;
40533;SDS011;26233;51.894;10.192;2023-05-10T02:23:11;2.40;;;2.20;;
40533;SDS011;26233;51.894;10.192;2023-05-10T02:25:43;2.40;;;2.20;;
40533;SDS011;26233;51.894;10.192;2023-05-10T02:28:11;2.40;;;2.20;;
40533;SDS011;26233;51.894;10.192;2023-05-10T02:30:40;2.83;;;2.03;;
40533;SDS011;26233;51.894;10.192;2023-05-10T02:33:09;3.03;;;2.45;;
40533;SDS011;26233;51.894;10.192;2023-05-10T02:35:45;2.38;;;2.17;;
40533;SDS011;26233;51.894;10.192;2023-05-10T02:38:14;2.25;;;2.10;;
40533;SDS011;26233;51.894;10.192;2023-05-10T02:40:42;3.28;;;2.20;;
40533;SDS011;26233;51.894;10.192;2023-05-10T02:43:11;2.22;;;2.03;;
40533;SDS011;26233;51.894;10.192;2023-05-10T02:45:40;2.40;;;2.20;;
40533;SDS011;26233;51.894;10.192;2023-05-10T02:48:13;2.25;;;2.05;;
40533;SDS011;26233;51.894;10.192;2023-05-10T02:50:40;2.35;;;2.15;;
40533;SDS011;26233;51.894;10.192;2023-05-10T02:53:18;3.13;;;2.15;;
40533;SDS011;26233;51.894;10.192;2023-05-10T02:55:50;3.10;;;2.15;;
40533;SDS011;26233;51.894;10.192;2023-05-10T02:58:18;2.42;;;2.22;;
40533;SDS011;26233;51.894;10.192;2023-05-10T03:00:46;2.15;;;2.05;;
40533;SDS011;26233;51.894;10.192;2023-05-10T03:03:13;2.38;;;2.17;;
40533;SDS011;26233;51.894;10.192;2023-05-10T03:05:40;2.47;;;2.25;;
40533;SDS011;26233;51.894;10.192;2023-05-10T03:08:08;2.33;;;2.20;;
40533;SDS011;26233;51.894;10.192;2023-05-10T03:10:47;2.50;;;2.30;;
40533;SDS011;26233;51.894;10.192;2023-05-10T03:13:28;2.58;;;2.38;;
40533;SDS011;26233;51.894;10.192;2023-05-10T03:16:03;2.30;;;2.10;;
40533;SDS011;26233;51.894;10.192;2023-05-10T03:18:37;2.33;;;2.13;;
40533;SDS011;26233;51.894;10.192;2023-05-10T03:21:10;2.60;;;2.40;;
40533;SDS011;26233;51.894;10.192;2023-05-10T03:23:43;2.60;;;2.40;;
40533;SDS011;26233;51.894;10.192;2023-05-10T03:26:17;2.70;;;2.20;;
40533;SDS011;26233;51.894;10.192;2023-05-10T03:28:51;2.53;;;2.33;;
40533;SDS011;26233;51.894;10.192;2023-05-10T03:31:19;2.45;;;2.25;;
40533;SDS011;26233;51.894;10.192;2023-05-10T03:33:47;2.40;;;2.20;;
40533;SDS011;26233;51.894;10.192;2023-05-10T03:36:14;2.35;;;2.15;;
40533;SDS011;26233;51.894;10.192;2023-05-10T03:38:43;2.28;;;2.15;;
40533;SDS011;26233;51.894;10.192;2023-05-10T03:41:10;2.45;;;2.28;;
40533;SDS011;26233;51.894;10.192;2023-05-10T03:43:37;2.50;;;2.30;;
40533;SDS011;26233;51.894;10.192;2023-05-10T03:46:05;2.50;;;2.30;;
40533;SDS011;26233;51.894;10.192;2023-05-10T03:48:32;2.40;;;2.20;;
40533;SDS011;26233;51.894;10.192;2023-05-10T03:50:59;2.35;;;2.10;;
40533;SDS011;26233;51.894;10.192;2023-05-10T03:53:27;2.60;;;2.08;;
40533;SDS011;26233;51.894;10.192;2023-05-10T03:55:55;2.45;;;2.25;;
40533;SDS011;26233;51.894;10.192;2023-05-10T03:58:22;2.50;;;2.30;;
40533;SDS011;26233;51.894;10.192;2023-05-10T04:00:50;2.78;;;2.58;;
40533;SDS011;26233;51.894;10.192;2023-05-10T04:03:17;2.22;;;2.08;;
40533;SDS011;26233;51.894;10.192;2023-05-10T04:05:45;2.53;;;2.10;;
40533;SDS011;26233;51.894;10.192;2023-05-10T04:08:12;2.65;;;2.45;;
40533;SDS011;26233;51.894;10.192;2023-05-10T04:10:39;2.70;;;2.50;;
40533;SDS011;26233;51.894;10.192;2023-05-10T04:13:08;2.70;;;2.50;;
40533;SDS011;26233;51.894;10.192;2023-05-10T04:15:36;2.50;;;2.30;;
40533;SDS011;26233;51.894;10.192;2023-05-10T04:18:03;2.70;;;2.50;;
40533;SDS011;26233;51.894;10.192;2023-05-10T04:20:31;2.40;;;2.28;;
40533;SDS011;26233;51.894;10.192;2023-05-10T04:22:59;2.72;;;2.53;;
40533;SDS011;26233;51.894;10.192;2023-05-10T04:25:26;3.20;;;2.90;;
40533;SDS011;26233;51.894;10.192;2023-05-10T04:27:53;2.50;;;2.30;;
40533;SDS011;26233;51.894;10.192;2023-05-10T04:30:21;2.58;;;2.38;;
40533;SDS011;26233;51.894;10.192;2023-05-10T04:32:50;2.70;;;2.50;;
40533;SDS011;26233;51.894;10.192;2023-05-10T04:35:17;2.63;;;2.42;;
40533;SDS011;26233;51.894;10.192;2023-05-10T04:37:44;2.55;;;2.35;;
40533;SDS011;26233;51.894;10.192;2023-05-10T04:40:11;2.60;;;2.40;;
40533;SDS011;26233;51.894;10.192;2023-05-10T04:42:39;2.70;;;2.50;;
40533;SDS011;26233;51.894;10.192;2023-05-10T04:45:07;2.83;;;2.60;;
40533;SDS011;26233;51.894;10.192;2023-05-10T04:47:36;2.80;;;2.60;;
40533;SDS011;26233;51.894;10.192;2023-05-10T04:50:04;2.85;;;2.65;;
40533;SDS011;26233;51.894;10.192;2023-05-10T04:52:32;2.72;;;2.53;;
40533;SDS011;26233;51.894;10.192;2023-05-10T04:54:59;3.00;;;2.70;;
40533;SDS011;26233;51.894;10.192;2023-05-10T04:57:26;2.90;;;2.70;;
40533;SDS011;26233;51.894;10.192;2023-05-10T04:59:53;3.35;;;3.05;;
40533;SDS011;26233;51.894;10.192;2023-05-10T05:02:20;2.70;;;2.50;;
40533;SDS011;26233;51.894;10.192;2023-05-10T05:04:50;2.70;;;2.50;;
40533;SDS011;26233;51.894;10.192;2023-05-10T05:07:17;2.55;;;2.35;;
40533;SDS011;26233;51.894;10.192;2023-05-10T05:09:44;2.80;;;2.60;;
40533;SDS011;26233;51.894;10.192;2023-05-10T05:12:11;2.70;;;2.50;;
40533;SDS011;26233;51.894;10.192;2023-05-10T05:14:39;2.55;;;2.35;;
40533;SDS011;26233;51.894;10.192;2023-05-10T05:17:06;2.70;;;2.50;;
40533;SDS011;26233;51.894;10.192;2023-05-10T05:19:33;2.75;;;2.55;;
40533;SDS011;26233;51.894;10.192;2023-05-10T05:22:02;2.85;;;2.65;;
40533;SDS011;26233;51.894;10.192;2023-05-10T05:24:29;2.92;;;2.67;;
40533;SDS011;26233;51.894;10.192;2023-05-10T05:27:01;2.90;;;2.70;;
40533;SDS011;26233;51.894;10.192;2023-05-10T05:29:28;3.08;;;2.88;;
40533;SDS011;26233;51.894;10.192;2023-05-10T05:31:55;3.13;;;2.70;;
40533;SDS011;26233;51.894;10.192;2023-05-10T05:34:22;3.05;;;2.85;;
40533;SDS011;26233;51.894;10.192;2023-05-10T05:36:50;2.95;;;2.75;;
40533;SDS011;26233;51.894;10.192;2023-05-10T05:39:18;3.20;;;2.90;;
40533;SDS011;26233;51.894;10.192;2023-05-10T05:41:45;2.72;;;2.53;;
40533;SDS011;26233;51.894;10.192;2023-05-10T05:44:12;3.15;;;2.78;;
40533;SDS011;26233;51.894;10.192;2023-05-10T05:46:39;3.45;;;3.15;;
40533;SDS011;26233;51.894;10.192;2023-05-10T05:49:06;3.35;;;3.05;;
40533;SDS011;26233;51.894;10.192;2023-05-10T05:51:33;3.58;;;3.28;;
40533;SDS011;26233;51.894;10.192;2023-05-10T05:54:00;3.78;;;3.47;;
40533;SDS011;26233;51.894;10.192;2023-05-10T05:56:30;3.53;;;3.22;;
40533;SDS011;26233;51.894;10.192;2023-05-10T05:58:58;3.97;;;3.33;;
40533;SDS011;26233;51.894;10.192;2023-05-10T06:01:25;3.70;;;3.40;;
40533;SDS011;26233;51.894;10.192;2023-05-10T06:03:52;3.45;;;3.15;;
40533;SDS011;26233;51.894;10.192;2023-05-10T06:06:19;3.22;;;2.72;;
40533;SDS011;26233;51.894;10.192;2023-05-10T06:08:46;3.00;;;2.80;;
40533;SDS011;26233;51.894;10.192;2023-05-10T06:11:13;3.35;;;3.15;;
40533;SDS011;26233;51.894;10.192;2023-05-10T06:13:43;3.10;;;2.90;;
40533;SDS011;26233;51.894;10.192;2023-05-10T06:16:11;2.90;;;2.70;;
40533;SDS011;26233;51.894;10.192;2023-05-10T06:18:38;3.50;;;3.20;;
40533;SDS011;26233;51.894;10.192;2023-05-10T06:21:05;4.15;;;2.92;;
40533;SDS011;26233;51.894;10.192;2023-05-10T06:23:32;3.22;;;2.90;;
40533;SDS011;26233;51.894;10.192;2023-05-10T06:26:00;3.47;;;3.20;;
40533;SDS011;26233;51.894;10.192;2023-05-10T06:28:28;3.20;;;3.00;;
40533;SDS011;26233;51.894;10.192;2023-05-10T06:30:57;2.80;;;2.60;;
40533;SDS011;26233;51.894;10.192;2023-05-10T06:33:24;4.10;;;2.90;;
40533;SDS011;26233;51.894;10.192;2023-05-10T06:35:52;3.20;;;2.92;;
40533;SDS011;26233;51.894;10.192;2023-05-10T06:38:19;3.83;;;3.00;;
40533;SDS011;26233;51.894;10.192;2023-05-10T06:40:46;3.40;;;3.10;;
40533;SDS011;26233;51.894;10.192;2023-05-10T06:43:13;3.08;;;2.88;;
40533;SDS011;26233;51.894;10.192;2023-05-10T06:45:41;2.80;;;2.53;;
40533;SDS011;26233;51.894;10.192;2023-05-10T06:48:09;3.30;;;3.00;;
40533;SDS011;26233;51.894;10.192;2023-05-10T06:50:36;3.55;;;3.25;;
40533;SDS011;26233;51.894;10.192;2023-05-10T06:53:03;2.80;;;2.60;;
40533;SDS011;26233;51.894;10.192;2023-05-10T06:55:30;2.72;;;2.53;;
40533;SDS011;26233;51.894;10.192;2023-05-10T06:57:57;2.83;;;2.63;;
40533;SDS011;26233;51.894;10.192;2023-05-10T07:00:24;2.67;;;2.47;;
40533;SDS011;26233;51.894;10.192;2023-05-10T07:02:52;2.53;;;2.33;;
40533;SDS011;26233;51.894;10.192;2023-05-10T07:05:20;2.85;;;2.65;;
40533;SDS011;26233;51.894;10.192;2023-05-10T07:07:47;2.75;;;2.55;;
40533;SDS011;26233;51.894;10.192;2023-05-10T07:10:14;2.35;;;2.22;;
40533;SDS011;26233;51.894;10.192;2023-05-10T07:12:42;2.88;;;2.67;;
40533;SDS011;26233;51.894;10.192;2023-05-10T07:15:09;3.03;;;2.65;;
40533;SDS011;26233;51.894;10.192;2023-05-10T07:17:37;2.60;;;2.40;;
40533;SDS011;26233;51.894;10.192;2023-05-10T07:20:04;2.67;;;2.47;;
40533;SDS011;26233;51.894;10.192;2023-05-10T07:22:35;2.55;;;2.35;;
40533;SDS011;26233;51.894;10.192;2023-05-10T07:25:02;2.67;;;2.47;;
40533;SDS011;26233;51.894;10.192;2023-05-10T07:27:29;2.50;;;2.30;;
40533;SDS011;26233;51.894;10.192;2023-05-10T07:29:57;2.28;;;2.08;;
40533;SDS011;26233;51.894;10.192;2023-05-10T07:32:24;2.60;;;2.40;;
40533;SDS011;26233;51.894;10.192;2023-05-10T07:34:51;2.53;;;2.33;;
40533;SDS011;26233;51.894;10.192;2023-05-10T07:37:18;2.60;;;2.40;;
40533;SDS011;26233;51.894;10.192;2023-05-10T07:39:47;2.28;;;2.10;;
40533;SDS011;26233;51.894;10.192;2023-05-10T07:42:13;2.28;;;2.17;;
40533;SDS011;26233;51.894;10.192;2023-05-10T07:44:40;2.40;;;2.20;;
40533;SDS011;26233;51.894;10.192;2023-05-10T07:47:08;2.58;;;2.38;;
40533;SDS011;26233;51.894;10.192;2023-05-10T07:49:36;2.63;;;2.40;;
40533;SDS011;26233;51.894;10.192;2023-05-10T07:52:03;2.40;;;2.20;;
40533;SDS011;26233;51.894;10.192;2023-05-10T07:54:30;2.17;;;2.05;;
40533;SDS011;26233;51.894;10.192;2023-05-10T07:56:59;2.72;;;2.53;;
40533;SDS011;26233;51.894;10.192;2023-05-10T07:59:26;2.50;;;2.30;;
40533;SDS011;26233;51.894;10.192;2023-05-10T08:01:53;2.60;;;2.40;;
40533;SDS011;26233;51.894;10.192;2023-05-10T08:04:21;2.78;;;2.58;;
40533;SDS011;26233;51.894;10.192;2023-05-10T08:06:49;2.63;;;2.42;;
40533;SDS011;26233;51.894;10.192;2023-05-10T08:09:19;3.10;;;2.80;;
40533;SDS011;26233;51.894;10.192;2023-05-10T08:11:48;3.00;;;2.80;;
40533;SDS011;26233;51.894;10.192;2023-05-10T08:14:17;2.80;;;2.60;;
40533;SDS011;26233;51.894;10.192;2023-05-10T08:16:47;2.72;;;2.53;;
40533;SDS011;26233;51.894;10.192;2023-05-10T08:19:14;2.22;;;2.03;;
40533;SDS011;26233;51.894;10.192;2023-05-10T08:21:43;2.63;;;2.42;;
40533;SDS011;26233;51.894;10.192;2023-05-10T08:24:11;2.33;;;2.13;;
40533;SDS011;26233;51.894;10.192;2023-05-10T08:26:38;2.50;;;2.30;;
40533;SDS011;26233;51.894;10.192;2023-05-10T08:29:05;2.97;;;2.60;;
40533;SDS011;26233;51.894;10.192;2023-05-10T08:31:33;1.95;;;1.80;;
40533;SDS011;26233;51.894;10.192;2023-05-10T08:34:00;1.77;;;1.67;;
40533;SDS011;26233;51.894;10.192;2023-05-10T08:36:27;1.60;;;1.50;;
40533;SDS011;26233;51.894;10.192;2023-05-10T08:38:54;1.70;;;1.55;;
40533;SDS011;26233;51.894;10.192;2023-05-10T08:41:22;1.40;;;1.30;;
40533;SDS011;26233;51.894;10.192;2023-05-10T08:43:50;1.38;;;1.27;;
40533;SDS011;26233;51.894;10.192;2023-05-10T08:46:19;1.17;;;1.13;;
40533;SDS011;26233;51.894;10.192;2023-05-10T08:48:49;1.20;;;1.10;;
40533;SDS011;26233;51.894;10.192;2023-05-10T08:51:23;1.00;;;1.00;;
40533;SDS011;26233;51.894;10.192;2023-05-10T08:53:51;1.23;;;1.13;;
40533;SDS011;26233;51.894;10.192;2023-05-10T08:56:19;1.85;;;1.23;;
40533;SDS011;26233;51.894;10.192;2023-05-10T08:58:46;1.02;;;1.00;;
40533;SDS011;26233;51.894;10.192;2023-05-10T09:01:13;1.00;;;1.00;;
40533;SDS011;26233;51.894;10.192;2023-05-10T09:03:45;0.93;;;0.90;;
40533;SDS011;26233;51.894;10.192;2023-05-10T09:06:14;1.25;;;1.10;;
40533;SDS011;26233;51.894;10.192;2023-05-10T09:08:42;0.90;;;0.90;;
40533;SDS011;26233;51.894;10.192;2023-05-10T09:11:09;0.80;;;0.80;;
40533;SDS011;26233;51.894;10.192;2023-05-10T09:13:37;0.90;;;0.90;;
40533;SDS011;26233;51.894;10.192;2023-05-10T09:16:05;1.10;;;1.00;;
40533;SDS011;26233;51.894;10.192;2023-05-10T09:18:32;0.90;;;0.90;;
40533;SDS011;26233;51.894;10.192;2023-05-10T09:20:59;0.90;;;0.90;;
40533;SDS011;26233;51.894;10.192;2023-05-10T09:23:28;1.45;;;0.90;;
40533;SDS011;26233;51.894;10.192;2023-05-10T09:26:03;0.90;;;0.90;;
40533;SDS011;26233;51.894;10.192;2023-05-10T09:28:31;1.02;;;0.95;;
40533;SDS011;26233;51.894;10.192;2023-05-10T09:30:59;0.95;;;0.95;;
40533;SDS011;26233;51.894;10.192;2023-05-10T09:33:26;1.33;;;1.10;;
40533;SDS011;26233;51.894;10.192;2023-05-10T09:35:54;1.02;;;0.98;;
40533;SDS011;26233;51.894;10.192;2023-05-10T09:38:21;1.00;;;1.00;;
40533;SDS011;26233;51.894;10.192;2023-05-10T09:40:52;1.33;;;1.13;;
40533;SDS011;26233;51.894;10.192;2023-05-10T09:43:20;1.60;;;0.90;;
40533;SDS011;26233;51.894;10.192;2023-05-10T09:45:47;0.90;;;0.90;;
40533;SDS011;26233;51.894;10.192;2023-05-10T09:48:15;1.27;;;1.17;;
40533;SDS011;26233;51.894;10.192;2023-05-10T09:50:42;1.10;;;1.10;;
40533;SDS011;26233;51.894;10.192;2023-05-10T09:53:09;0.90;;;0.90;;
40533;SDS011;26233;51.894;10.192;2023-05-10T09:55:42;1.20;;;1.10;;
40533;SDS011;26233;51.894;10.192;2023-05-10T09:58:12;1.20;;;1.13;;
40533;SDS011;26233;51.894;10.192;2023-05-10T10:00:40;1.60;;;1.50;;
40533;SDS011;26233;51.894;10.192;2023-05-10T10:03:11;1.30;;;1.20;;
40533;SDS011;26233;51.894;10.192;2023-05-10T10:05:40;1.20;;;1.10;;
40533;SDS011;26233;51.894;10.192;2023-05-10T10:08:08;1.20;;;1.13;;
40533;SDS011;26233;51.894;10.192;2023-05-10T10:10:36;1.00;;;1.00;;
40533;SDS011;26233;51.894;10.192;2023-05-10T10:13:05;0.90;;;0.90;;
40533;SDS011;26233;51.894;10.192;2023-05-10T10:15:34;1.08;;;1.00;;
40533;SDS011;26233;51.894;10.192;2023-05-10T10:18:02;1.00;;;1.00;;
40533;SDS011;26233;51.894;10.192;2023-05-10T10:20:29;1.23;;;1.13;;
40533;SDS011;26233;51.894;10.192;2023-05-10T10:22:56;1.10;;;1.10;;
40533;SDS011;26233;51.894;10.192;2023-05-10T10:25:23;1.20;;;0.90;;
40533;SDS011;26233;51.894;10.192;2023-05-10T10:27:57;1.00;;;0.90;;
40533;SDS011;26233;51.894;10.192;2023-05-10T10:30:39;0.82;;;0.80;;
40533;SDS011;26233;51.894;10.192;2023-05-10T10:36:06;0.73;;;0.73;;
40533;SDS011;26233;51.894;10.192;2023-05-10T10:38:37;0.70;;;0.70;;
40533;SDS011;26233;51.894;10.192;2023-05-10T10:41:27;0.70;;;0.70;;
40533;SDS011;26233;51.894;10.192;2023-05-10T10:47:05;0.60;;;0.60;;
40533;SDS011;26233;51.894;10.192;2023-05-10T10:50:05;0.70;;;0.70;;
40533;SDS011;26233;51.894;10.192;2023-05-10T10:52:34;1.08;;;0.82;;
40533;SDS011;26233;51.894;10.192;2023-05-10T10:55:03;0.65;;;0.65;;
40533;SDS011;26233;51.894;10.192;2023-05-10T10:57:42;0.75;;;0.70;;
40533;SDS011;26233;51.894;10.192;2023-05-10T11:00:19;0.85;;;0.70;;
40533;SDS011;26233;51.894;10.192;2023-05-10T11:02:57;0.70;;;0.70;;
40533;SDS011;26233;51.894;10.192;2023-05-10T11:05:39;0.60;;;0.60;;
40533;SDS011;26233;51.894;10.192;2023-05-10T11:08:11;0.70;;;0.70;;
40533;SDS011;26233;51.894;10.192;2023-05-10T11:13:33;0.70;;;0.70;;
40533;SDS011;26233;51.894;10.192;2023-05-10T11:16:14;0.60;;;0.60;;
40533;SDS011;26233;51.894;10.192;2023-05-10T11:21:44;0.60;;;0.60;;
40533;SDS011;26233;51.894;10.192;2023-05-10T11:24:14;0.68;;;0.68;;
40533;SDS011;26233;51.894;10.192;2023-05-10T11:26:43;0.60;;;0.60;;
40533;SDS011;26233;51.894;10.192;2023-05-10T11:29:10;0.57;;;0.57;;
40533;SDS011;26233;51.894;10.192;2023-05-10T11:31:42;0.70;;;0.70;;
40533;SDS011;26233;51.894;10.192;2023-05-10T11:34:13;0.60;;;0.60;;
40533;SDS011;26233;51.894;10.192;2023-05-10T11:36:50;0.77;;;0.70;;
40533;SDS011;26233;51.894;10.192;2023-05-10T11:39:19;0.60;;;0.60;;
40533;SDS011;26233;51.894;10.192;2023-05-10T11:41:47;0.85;;;0.70;;
40533;SDS011;26233;51.894;10.192;2023-05-10T11:44:15;0.65;;;0.65;;
40533;SDS011;26233;51.894;10.192;2023-05-10T11:46:42;0.68;;;0.68;;
40533;SDS011;26233;51.894;10.192;2023-05-10T11:49:09;1.02;;;0.80;;
40533;SDS011;26233;51.894;10.192;2023-05-10T11:51:39;0.70;;;0.70;;
40533;SDS011;26233;51.894;10.192;2023-05-10T11:54:09;0.63;;;0.63;;
40533;SDS011;26233;51.894;10.192;2023-05-10T11:56:37;0.70;;;0.70;;
40533;SDS011;26233;51.894;10.192;2023-05-10T11:59:04;0.60;;;0.60;;
40533;SDS011;26233;51.894;10.192;2023-05-10T12:01:32;1.35;;;1.00;;
40533;SDS011;26233;51.894;10.192;2023-05-10T12:04:00;0.80;;;0.80;;
40533;SDS011;26233;51.894;10.192;2023-05-10T12:06:28;0.75;;;0.75;;
40533;SDS011;26233;51.894;10.192;2023-05-10T12:08:58;0.80;;;0.80;;
40533;SDS011;26233;51.894;10.192;2023-05-10T12:11:26;1.08;;;0.82;;
40533;SDS011;26233;51.894;10.192;2023-05-10T12:13:55;1.05;;;0.98;;
40533;SDS011;26233;51.894;10.192;2023-05-10T12:16:22;0.77;;;0.60;;
40533;SDS011;26233;51.894;10.192;2023-05-10T12:18:51;0.80;;;0.80;;
40533;SDS011;26233;51.894;10.192;2023-05-10T12:21:19;0.90;;;0.80;;
40533;SDS011;26233;51.894;10.192;2023-05-10T12:23:48;1.20;;;0.73;;
40533;SDS011;26233;51.894;10.192;2023-05-10T12:26:18;0.95;;;0.80;;
40533;SDS011;26233;51.894;10.192;2023-05-10T12:28:48;0.82;;;0.80;;
40533;SDS011;26233;51.894;10.192;2023-05-10T12:31:15;0.70;;;0.70;;
40533;SDS011;26233;51.894;10.192;2023-05-10T12:33:42;0.70;;;0.70;;
40533;SDS011;26233;51.894;10.192;2023-05-10T12:36:13;0.98;;;0.88;;
40533;SDS011;26233;51.894;10.192;2023-05-10T12:38:41;0.70;;;0.70;;
40533;SDS011;26233;51.894;10.192;2023-05-10T12:41:13;0.80;;;0.80;;
40533;SDS011;26233;51.894;10.192;2023-05-10T12:43:43;1.00;;;0.90;;
40533;SDS011;26233;51.894;10.192;2023-05-10T12:46:12;1.25;;;0.70;;
40533;SDS011;26233;51.894;10.192;2023-05-10T12:48:41;1.45;;;0.80;;
40533;SDS011;26233;51.894;10.192;2023-05-10T12:51:10;1.00;;;0.85;;
40533;SDS011;26233;51.894;10.192;2023-05-10T12:53:40;0.90;;;0.75;;
40533;SDS011;26233;51.894;10.192;2023-05-10T12:56:07;0.80;;;0.70;;
40533;SDS011;26233;51.894;10.192;2023-05-10T12:58:34;0.90;;;0.80;;
40533;SDS011;26233;51.894;10.192;2023-05-10T13:01:04;2.08;;;0.90;;
40533;SDS011;26233;51.894;10.192;2023-05-10T13:03:31;1.00;;;0.90;;
40533;SDS011;26233;51.894;10.192;2023-05-10T13:05:58;1.20;;;1.10;;
40533;SDS011;26233;51.894;10.192;2023-05-10T13:08:26;1.40;;;1.10;;
40533;SDS011;26233;51.894;10.192;2023-05-10T13:10:54;1.10;;;1.00;;
40533;SDS011;26233;51.894;10.192;2023-05-10T13:13:21;0.98;;;0.98;;
40533;SDS011;26233;51.894;10.192;2023-05-10T13:15:48;1.33;;;1.00;;
40533;SDS011;26233;51.894;10.192;2023-05-10T13:18:17;1.10;;;1.00;;
40533;SDS011;26233;51.894;10.192;2023-05-10T13:20:44;1.10;;;1.00;;
40533;SDS011;26233;51.894;10.192;2023-05-10T13:23:11;0.80;;;0.80;;
40533;SDS011;26233;51.894;10.192;2023-05-10T13:25:38;1.65;;;0.90;;
40533;SDS011;26233;51.894;10.192;2023-05-10T13:28:05;1.10;;;0.95;;
40533;SDS011;26233;51.894;10.192;2023-05-10T13:30:32;1.08;;;0.90;;
40533;SDS011;26233;51.894;10.192;2023-05-10T13:32:59;1.55;;;0.90;;
40533;SDS011;26233;51.894;10.192;2023-05-10T13:35:27;1.15;;;0.82;;
40533;SDS011;26233;51.894;10.192;2023-05-10T13:37:54;0.95;;;0.95;;
40533;SDS011;26233;51.894;10.192;2023-05-10T13:40:22;1.50;;;1.10;;
40533;SDS011;26233;51.894;10.192;2023-05-10T13:42:49;1.20;;;1.10;;
40533;SDS011;26233;51.894;10.192;2023-05-10T13:45:17;1.50;;;1.23;;
40533;SDS011;26233;51.894;10.192;2023-05-10T13:47:44;2.33;;;1.38;;
40533;SDS011;26233;51.894;10.192;2023-05-10T13:50:12;2.92;;;1.92;;
40533;SDS011;26233;51.894;10.192;2023-05-10T13:52:40;2.90;;;1.30;;
40533;SDS011;26233;51.894;10.192;2023-05-10T13:55:07;1.50;;;1.27;;
40533;SDS011;26233;51.894;10.192;2023-05-10T13:57:37;2.38;;;1.60;;
40533;SDS011;26233;51.894;10.192;2023-05-10T14:00:04;1.75;;;1.30;;
40533;SDS011;26233;51.894;10.192;2023-05-10T14:02:33;1.13;;;1.02;;
40533;SDS011;26233;51.894;10.192;2023-05-10T14:05:00;1.38;;;1.23;;
40533;SDS011;26233;51.894;10.192;2023-05-10T14:07:27;1.20;;;1.10;;
40533;SDS011;26233;51.894;10.192;2023-05-10T14:09:56;1.38;;;1.27;;
40533;SDS011;26233;51.894;10.192;2023-05-10T14:12:23;3.47;;;3.17;;
40533;SDS011;26233;51.894;10.192;2023-05-10T14:14:50;4.03;;;3.63;;
40533;SDS011;26233;51.894;10.192;2023-05-10T14:17:17;3.78;;;3.47;;
40533;SDS011;26233;51.894;10.192;2023-05-10T14:19:44;2.88;;;2.65;;
40533;SDS011;26233;51.894;10.192;2023-05-10T14:22:11;2.38;;;2.17;;
40533;SDS011;26233;51.894;10.192;2023-05-10T14:24:38;2.00;;;1.88;;
40533;SDS011;26233;51.894;10.192;2023-05-10T14:27:06;1.48;;;1.38;;
40533;SDS011;26233;51.894;10.192;2023-05-10T14:29:33;2.65;;;1.60;;
40533;SDS011;26233;51.894;10.192;2023-05-10T14:32:00;1.40;;;1.30;;
40533;SDS011;26233;51.894;10.192;2023-05-10T14:34:27;1.00;;;1.00;;
40533;SDS011;26233;51.894;10.192;2023-05-10T14:36:54;1.10;;;1.00;;
40533;SDS011;26233;51.894;10.192;2023-05-10T14:39:22;1.30;;;1.20;;
40533;SDS011;26233;51.894;10.192;2023-05-10T14:41:49;1.10;;;1.00;;
40533;SDS011;26233;51.894;10.192;2023-05-10T14:44:17;1.27;;;1.17;;
40533;SDS011;26233;51.894;10.192;2023-05-10T14:46:45;1.48;;;1.30;;
40533;SDS011;26233;51.894;10.192;2023-05-10T14:49:12;1.05;;;1.02;;
40533;SDS011;26233;51.894;10.192;2023-05-10T14:51:39;1.27;;;1.10;;
40533;SDS011;26233;51.894;10.192;2023-05-10T14:54:06;1.30;;;1.20;;
40533;SDS011;26233;51.894;10.192;2023-05-10T14:56:33;1.23;;;1.13;;